Time;durP1;ratioP1;P1;durP2;ratioP2;P2;SDS_P1;SDS_P2;PMS_P1;PMS_P2;Temp;Humidity;BMP_temperature;BMP_pressure;BME280_temperature;BME280_humidity;BME280_pressure;Samples;Min_cycle;Max_cycle;Signal;HPM_P1;HPM_P2
2023/06/19 00:01:28;;;;;;;9.07;7.03;;;;;;;24.40;48.33;101023.75;5031870;27;96785;-62
2023/06/19 00:03:54;;;;;;;8.25;7.05;;;;;;;24.57;47.46;101025.78;5032485;27;100638;-62
2023/06/19 00:06:20;;;;;;;8.50;7.68;;;;;;;24.41;47.67;101018.22;5032276;27;98783;-62
2023/06/19 00:08:47;;;;;;;7.72;6.88;;;;;;;24.37;48.02;101016.78;5030729;27;96894;-62
2023/06/19 00:11:15;;;;;;;8.35;7.55;;;;;;;24.46;47.77;101020.50;5035143;27;96870;-62
2023/06/19 00:13:41;;;;;;;7.95;7.15;;;;;;;24.32;48.22;101018.19;5030521;27;98917;-62
2023/06/19 00:16:07;;;;;;;10.90;6.90;;;;;;;24.57;47.49;101017.69;5033924;27;98957;-62
2023/06/19 00:18:39;;;;;;;8.40;7.47;;;;;;;24.39;47.65;101013.94;5031993;27;96787;-62
2023/06/19 00:21:07;;;;;;;8.32;7.47;;;;;;;24.50;48.03;101025.50;5034981;27;96855;-61
2023/06/19 00:23:34;;;;;;;8.02;7.22;;;;;;;24.58;47.84;101031.06;5029685;27;99127;-62
2023/06/19 00:26:01;;;;;;;8.80;7.95;;;;;;;24.70;47.35;101022.84;5040293;27;99187;-62
2023/06/19 00:28:29;;;;;;;9.90;7.53;;;;;;;24.56;47.66;101024.06;5032874;27;96781;-62
2023/06/19 00:30:55;;;;;;;8.48;7.68;;;;;;;24.65;47.53;101034.06;5037913;27;96701;-62
2023/06/19 00:33:22;;;;;;;9.13;7.30;;;;;;;24.71;47.62;101030.81;5032476;27;99280;-61
2023/06/19 00:35:48;;;;;;;8.32;7.35;;;;;;;24.76;48.07;101028.53;5034631;27;99006;-62
2023/06/19 00:38:15;;;;;;;7.57;6.88;;;;;;;24.78;47.77;101028.41;5034150;27;96902;-61
2023/06/19 00:40:41;;;;;;;9.27;7.68;;;;;;;24.88;46.79;101021.16;5034158;27;96945;-62
2023/06/19 00:43:08;;;;;;;8.05;6.93;;;;;;;24.81;47.24;101028.16;5033622;27;99205;-64
2023/06/19 00:45:36;;;;;;;7.88;7.00;;;;;;;24.83;47.05;101031.53;5031995;27;98998;-62
2023/06/19 00:48:05;;;;;;;11.20;7.90;;;;;;;24.63;47.59;101027.94;5031757;27;96793;-62
2023/06/19 00:50:31;;;;;;;9.48;6.93;;;;;;;24.52;48.74;101023.50;5040779;27;96857;-62
2023/06/19 00:52:59;;;;;;;8.95;7.85;;;;;;;24.63;48.69;101025.25;5033850;27;98862;-61
2023/06/19 00:55:29;;;;;;;9.52;7.38;;;;;;;24.39;50.24;101024.75;5035238;27;99350;-61
2023/06/19 00:57:55;;;;;;;8.38;7.32;;;;;;;24.64;49.52;101029.66;5030656;27;97050;-62
2023/06/19 01:00:21;;;;;;;9.60;7.47;;;;;;;24.78;48.45;101028.41;5029101;27;96954;-62
2023/06/19 01:02:50;;;;;;;8.93;7.57;;;;;;;24.66;47.28;101026.81;5032770;27;100844;-62
2023/06/19 01:05:17;;;;;;;12.00;8.07;;;;;;;24.55;47.53;101025.06;5027714;27;98715;-62
2023/06/19 01:07:49;;;;;;;8.70;7.90;;;;;;;24.58;47.38;101014.84;5031193;27;96899;-62
2023/06/19 01:10:19;;;;;;;10.43;7.93;;;;;;;24.75;47.11;101017.88;5028449;27;97109;-62
2023/06/19 01:12:53;;;;;;;10.88;7.55;;;;;;;24.69;47.23;101016.56;5026434;27;99722;-62
2023/06/19 01:15:20;;;;;;;8.75;7.85;;;;;;;24.64;47.29;101013.44;5030034;27;97538;-62
2023/06/19 01:17:47;;;;;;;8.90;7.60;;;;;;;24.52;47.92;101019.97;5031029;27;97730;-62
2023/06/19 01:20:16;;;;;;;9.93;8.15;;;;;;;24.39;48.19;101013.94;5031674;27;96831;-61
2023/06/19 01:22:44;;;;;;;9.63;7.93;;;;;;;24.35;47.97;101016.03;5032130;27;98935;-62
2023/06/19 01:25:13;;;;;;;8.88;7.97;;;;;;;24.28;48.01;101005.94;5031402;27;98952;-62
2023/06/19 01:27:41;;;;;;;9.23;8.32;;;;;;;24.34;47.89;101006.25;5026965;27;96755;-63
2023/06/19 01:30:10;;;;;;;8.45;7.65;;;;;;;24.35;47.61;101004.41;5031571;27;97051;-62
2023/06/19 01:32:51;;;;;;;9.88;8.23;;;;;;;24.42;47.82;101002.84;5041299;27;97829;-63
2023/06/19 01:35:22;;;;;;;10.23;7.93;;;;;;;24.35;47.80;101001.72;5030336;27;99268;-63
2023/06/19 01:37:53;;;;;;;9.20;8.27;;;;;;;24.42;47.93;101002.84;5035597;27;96881;-62
2023/06/19 01:40:21;;;;;;;8.07;7.35;;;;;;;24.39;47.75;100998.59;5032142;27;96842;-63
2023/06/19 01:42:48;;;;;;;9.15;8.07;;;;;;;24.49;47.45;100995.91;5035951;27;97642;-63
2023/06/19 01:45:15;;;;;;;8.98;8.05;;;;;;;24.41;47.38;100991.22;5033189;27;98734;-63
2023/06/19 01:47:41;;;;;;;9.77;8.85;;;;;;;24.36;47.53;100987.19;5038645;27;97063;-63
2023/06/19 01:50:09;;;;;;;11.23;8.02;;;;;;;24.56;47.38;100988.97;5031413;27;96887;-63
2023/06/19 01:52:36;;;;;;;9.88;7.75;;;;;;;24.41;47.69;100984.97;5030642;27;99754;-63
2023/06/19 01:55:04;;;;;;;9.20;8.32;;;;;;;24.42;47.79;100981.25;5026857;27;99278;-62
2023/06/19 01:57:31;;;;;;;8.57;7.70;;;;;;;24.35;47.88;100985.50;5029451;27;96823;-63
2023/06/19 01:59:57;;;;;;;8.70;7.80;;;;;;;24.17;48.45;100980.69;5029328;27;96947;-62
2023/06/19 02:02:23;;;;;;;9.52;8.48;;;;;;;24.16;48.33;100976.28;5030396;27;98938;-62
2023/06/19 02:04:50;;;;;;;8.63;7.72;;;;;;;24.21;48.13;100982.19;5030089;27;100722;-62
2023/06/19 02:07:16;;;;;;;9.20;8.30;;;;;;;24.32;47.95;100975.81;5028943;27;97001;-61
2023/06/19 02:09:43;;;;;;;9.75;8.75;;;;;;;24.37;47.72;100978.09;5029571;27;96966;-62
2023/06/19 02:12:11;;;;;;;9.80;8.80;;;;;;;24.32;48.02;100970.41;5032728;27;99014;-63
2023/06/19 02:14:37;;;;;;;10.55;8.30;;;;;;;24.40;47.67;100973.28;5028632;27;101258;-62
2023/06/19 02:17:04;;;;;;;10.35;9.00;;;;;;;24.18;48.21;100962.66;5030157;27;96787;-62
2023/06/19 02:19:30;;;;;;;11.23;8.80;;;;;;;24.05;48.52;100965.59;5027382;27;97184;-62
2023/06/19 02:21:56;;;;;;;11.32;9.15;;;;;;;24.14;48.25;100970.19;5027355;27;98927;-63
2023/06/19 02:24:23;;;;;;;10.07;9.02;;;;;;;24.33;48.03;100963.19;5028458;27;99527;-62
2023/06/19 02:26:49;;;;;;;9.48;8.57;;;;;;;24.06;48.12;100963.75;5027198;27;96845;-62
2023/06/19 02:29:17;;;;;;;10.30;9.25;;;;;;;24.29;47.64;100951.78;5032869;27;97148;-63
2023/06/19 02:31:43;;;;;;;9.50;8.60;;;;;;;24.25;47.98;100958.47;5035334;27;99496;-62
2023/06/19 02:34:10;;;;;;;11.18;8.63;;;;;;;24.24;48.07;100959.44;5028520;27;99524;-62
2023/06/19 02:36:36;;;;;;;10.73;9.38;;;;;;;24.31;47.67;100957.06;5030154;27;96854;-63
2023/06/19 02:39:05;;;;;;;10.38;9.38;;;;;;;24.29;47.78;100962.59;5038654;27;97426;-61
2023/06/19 02:41:31;;;;;;;10.02;8.85;;;;;;;24.29;47.57;100959.03;5032989;27;99708;-61
2023/06/19 02:43:58;;;;;;;9.98;8.98;;;;;;;24.21;47.82;100952.50;5033419;27;99105;-62
2023/06/19 02:46:25;;;;;;;10.35;9.27;;;;;;;24.24;47.61;100956.75;5031131;27;97523;-61
2023/06/19 02:48:52;;;;;;;10.20;9.23;;;;;;;24.48;46.98;100953.72;5031688;27;100460;-62
2023/06/19 02:51:18;;;;;;;12.43;8.95;;;;;;;24.09;48.04;100952.69;5034029;27;99303;-62
2023/06/19 02:53:44;;;;;;;9.93;8.93;;;;;;;24.08;48.07;100956.38;5034284;27;98721;-63
2023/06/19 02:56:12;;;;;;;10.05;9.05;;;;;;;24.22;47.64;100956.03;5030525;27;96833;-62
2023/06/19 02:58:39;;;;;;;10.55;9.52;;;;;;;24.12;48.09;100955.97;5037884;27;97047;-62
2023/06/19 03:01:06;;;;;;;22.38;10.00;;;;;;;24.30;47.62;100952.63;5031944;27;98896;-62
2023/06/19 03:03:37;;;;;;;10.30;9.30;;;;;;;24.24;47.33;100945.94;5032618;27;99273;-61
2023/06/19 03:06:05;;;;;;;10.05;9.05;;;;;;;24.20;47.67;100949.91;5027200;27;96772;-62
2023/06/19 03:08:31;;;;;;;14.95;10.05;;;;;;;24.14;47.90;100955.84;5032919;27;97074;-61
2023/06/19 03:10:58;;;;;;;12.98;9.75;;;;;;;23.92;48.29;100956.88;5038447;27;97961;-62
2023/06/19 03:13:24;;;;;;;10.57;9.48;;;;;;;24.02;48.12;100944.28;5040958;27;99171;-61
2023/06/19 03:15:50;;;;;;;10.68;9.63;;;;;;;24.18;47.80;100947.31;5033857;27;96891;-62
2023/06/19 03:18:17;;;;;;;11.15;9.50;;;;;;;24.19;47.81;100950.91;5041034;27;96945;-61
2023/06/19 03:20:44;;;;;;;10.25;9.15;;;;;;;24.15;47.96;100955.72;5038743;27;99421;-62
2023/06/19 03:23:11;;;;;;;10.20;9.20;;;;;;;24.25;48.06;100963.00;5032330;27;101940;-64
2023/06/19 03:25:42;;;;;;;10.68;9.63;;;;;;;24.40;47.47;100958.94;5032181;27;96908;-62
2023/06/19 03:28:09;;;;;;;10.20;9.10;;;;;;;24.43;47.45;100964.91;5033387;27;97778;-62
2023/06/19 03:30:35;;;;;;;10.80;9.70;;;;;;;24.63;47.09;100960.41;5034697;27;101193;-61
2023/06/19 03:33:01;;;;;;;12.02;9.95;;;;;;;24.55;47.02;100968.34;5030989;27;97729;-62
2023/06/19 03:35:28;;;;;;;10.23;9.13;;;;;;;24.61;46.65;100962.41;5032146;27;96811;-62
2023/06/19 03:37:56;;;;;;;10.02;9.00;;;;;;;24.82;46.92;100968.53;5036015;27;97118;-62
2023/06/19 03:40:22;;;;;;;11.80;10.00;;;;;;;24.60;47.21;100968.81;5036320;27;99320;-62
2023/06/19 03:42:49;;;;;;;11.15;9.60;;;;;;;24.82;46.65;100971.22;5032297;27;99527;-61
2023/06/19 03:45:15;;;;;;;10.32;9.18;;;;;;;24.55;47.17;100973.75;5029925;27;96762;-62
2023/06/19 03:47:42;;;;;;;10.60;9.57;;;;;;;24.72;46.33;100975.78;5033659;27;97933;-62
2023/06/19 03:50:09;;;;;;;10.07;9.07;;;;;;;24.83;46.06;100978.34;5036459;27;101192;-63
2023/06/19 03:52:36;;;;;;;9.30;8.32;;;;;;;25.05;45.33;100984.53;5034635;27;99081;-62
2023/06/19 03:55:05;;;;;;;12.65;9.63;;;;;;;24.77;45.62;100987.03;5036634;27;97089;-62
2023/06/19 03:57:31;;;;;;;10.38;9.30;;;;;;;24.94;45.79;100980.13;5032928;27;96833;-63
2023/06/19 03:59:58;;;;;;;10.48;9.43;;;;;;;25.01;45.19;100976.69;5034830;27;98887;-63
2023/06/19 04:02:25;;;;;;;11.75;9.68;;;;;;;24.89;45.64;100964.31;5033737;27;99167;-62
2023/06/19 04:04:51;;;;;;;10.02;9.02;;;;;;;24.88;45.70;100970.66;5027065;27;97467;-61
2023/06/19 04:07:18;;;;;;;9.57;8.63;;;;;;;24.84;45.78;100966.56;5033552;27;96859;-61
2023/06/19 04:09:44;;;;;;;10.90;9.73;;;;;;;24.95;45.68;100962.88;5036608;27;98918;-62
2023/06/19 04:12:12;;;;;;;11.48;9.80;;;;;;;24.86;45.47;100958.31;5033322;27;98835;-62
2023/06/19 04:14:39;;;;;;;11.27;9.15;;;;;;;24.95;45.55;100955.63;5033838;27;97393;-61
2023/06/19 04:17:06;;;;;;;11.60;9.23;;;;;;;24.92;45.31;100945.13;5031218;27;96957;-61
2023/06/19 04:19:32;;;;;;;9.70;8.70;;;;;;;24.99;45.43;100946.25;5030518;27;97814;-62
2023/06/19 04:21:59;;;;;;;11.25;9.52;;;;;;;24.99;45.10;100951.66;5029856;27;98839;-62
2023/06/19 04:24:25;;;;;;;10.82;9.65;;;;;;;24.96;45.12;100945.66;5032163;27;97012;-61
2023/06/19 04:26:52;;;;;;;10.43;8.93;;;;;;;25.01;45.35;100955.06;5034056;27;96910;-61
2023/06/19 04:29:20;;;;;;;10.57;9.02;;;;;;;24.90;45.17;100955.22;5029394;27;101693;-61
2023/06/19 04:31:47;;;;;;;10.65;9.18;;;;;;;25.12;44.88;100955.94;5029446;27;100682;-61
2023/06/19 04:34:15;;;;;;;11.90;9.20;;;;;;;25.04;44.92;100962.03;5024869;27;99081;-62
2023/06/19 04:36:41;;;;;;;10.30;8.50;;;;;;;25.14;45.34;100962.06;5025537;27;96890;-61
2023/06/19 04:39:08;;;;;;;11.75;9.68;;;;;;;25.35;44.48;100960.03;5025689;27;97969;-61
2023/06/19 04:41:38;;;;;;;10.05;8.93;;;;;;;25.03;44.88;100965.75;5030450;27;99219;-61
2023/06/19 04:44:05;;;;;;;11.13;9.60;;;;;;;25.17;44.71;100972.56;5036549;27;97827;-62
2023/06/19 04:46:32;;;;;;;10.80;8.90;;;;;;;25.23;44.66;100980.09;5032432;27;97585;-62
2023/06/19 04:48:59;;;;;;;10.52;9.52;;;;;;;25.18;44.97;100983.25;5028505;27;98444;-62
2023/06/19 04:51:26;;;;;;;10.57;9.50;;;;;;;25.28;44.53;100978.69;5034587;27;98826;-62
2023/06/19 04:53:52;;;;;;;10.43;8.77;;;;;;;25.38;45.04;100975.97;5034130;27;96866;-62
2023/06/19 04:56:19;;;;;;;11.02;9.75;;;;;;;25.40;44.76;100976.69;5031256;27;97458;-63
2023/06/19 04:58:47;;;;;;;12.27;9.85;;;;;;;24.98;45.18;100982.38;5027869;27;99075;-62
2023/06/19 05:01:13;;;;;;;13.63;9.65;;;;;;;25.14;45.20;100975.56;5028898;27;98820;-63
2023/06/19 05:03:42;;;;;;;10.68;9.68;;;;;;;25.26;44.74;100983.41;5030383;27;97220;-62
2023/06/19 05:06:08;;;;;;;10.02;9.13;;;;;;;25.13;45.45;100980.13;5027195;27;96918;-62
2023/06/19 05:08:35;;;;;;;13.23;10.02;;;;;;;25.13;45.32;100981.97;5028028;27;98961;-62
2023/06/19 05:11:01;;;;;;;10.43;9.32;;;;;;;25.33;45.02;100991.78;5032760;27;98000;-62
2023/06/19 05:13:28;;;;;;;11.63;10.05;;;;;;;25.30;44.93;100992.91;5024055;27;97164;-62
2023/06/19 05:15:55;;;;;;;11.27;10.07;;;;;;;25.24;45.39;100995.34;5034699;27;97004;-62
2023/06/19 05:18:22;;;;;;;10.63;9.63;;;;;;;25.22;45.17;101006.28;5028769;27;99061;-62
2023/06/19 05:20:50;;;;;;;11.27;9.25;;;;;;;25.42;44.76;100999.03;5026409;27;98383;-62
2023/06/19 05:23:16;;;;;;;14.45;10.05;;;;;;;25.28;45.45;100991.34;5029484;27;96792;-62
2023/06/19 05:25:43;;;;;;;13.80;9.23;;;;;;;25.59;44.85;100989.38;5031331;27;96893;-62
2023/06/19 05:28:10;;;;;;;12.10;10.48;;;;;;;25.54;44.49;100987.06;5025832;27;102404;-61
2023/06/19 05:30:36;;;;;;;18.98;11.68;;;;;;;25.42;44.64;100996.31;5035775;27;99079;-62
2023/06/19 05:33:02;;;;;;;14.32;10.70;;;;;;;25.58;45.08;100991.22;5027101;27;97000;-62
2023/06/19 05:35:30;;;;;;;12.38;9.93;;;;;;;25.50;45.34;100993.75;5028887;27;97094;-62
2023/06/19 05:37:58;;;;;;;13.15;10.05;;;;;;;25.63;44.63;100999.75;5020957;27;99302;-63
2023/06/19 05:40:24;;;;;;;17.13;10.25;;;;;;;25.76;44.54;101002.16;5030734;27;98879;-62
2023/06/19 05:42:51;;;;;;;17.95;9.98;;;;;;;25.69;44.30;100996.47;5035307;27;96882;-63
2023/06/19 05:45:17;;;;;;;15.02;10.55;;;;;;;25.81;44.63;100997.16;5033654;27;96956;-62
2023/06/19 05:47:43;;;;;;;12.63;10.25;;;;;;;26.01;43.96;100997.94;5025603;27;98868;-62
2023/06/19 05:50:10;;;;;;;14.70;11.07;;;;;;;26.06;43.56;101001.91;5024154;27;98904;-62
2023/06/19 05:52:41;;;;;;;12.68;10.73;;;;;;;26.09;43.90;100998.06;5020383;27;98750;-61
2023/06/19 05:55:09;;;;;;;11.88;10.02;;;;;;;26.26;43.61;100991.88;5027276;27;97131;-63
2023/06/19 05:57:36;;;;;;;11.00;9.93;;;;;;;26.28;43.22;100999.88;5024045;27;99342;-62
2023/06/19 06:00:04;;;;;;;13.40;10.23;;;;;;;26.36;42.82;100995.41;5023537;27;98712;-62
2023/06/19 06:02:33;;;;;;;13.30;10.20;;;;;;;26.27;42.59;100996.31;5030688;27;97083;-63
2023/06/19 06:04:59;;;;;;;13.40;10.80;;;;;;;26.61;42.29;100996.56;5030249;27;96835;-63
2023/06/19 06:07:27;;;;;;;12.32;10.02;;;;;;;26.55;42.60;100986.31;5031752;27;99036;-62
2023/06/19 06:09:53;;;;;;;11.43;10.25;;;;;;;26.74;42.42;100988.91;5029838;27;99156;-62
2023/06/19 06:12:21;;;;;;;15.65;10.57;;;;;;;26.71;42.28;100991.94;5037408;27;96823;-62
2023/06/19 06:14:48;;;;;;;15.63;10.90;;;;;;;26.77;42.23;100990.47;5029388;27;98062;-62
2023/06/19 06:17:15;;;;;;;14.60;10.05;;;;;;;26.78;42.20;100984.88;5029950;27;98240;-68
2023/06/19 06:19:41;;;;;;;12.60;10.18;;;;;;;26.98;42.09;100982.09;5029947;27;97774;-62
2023/06/19 06:22:08;;;;;;;18.63;11.32;;;;;;;26.92;42.01;100988.97;5031202;27;97160;-62
2023/06/19 06:24:34;;;;;;;18.92;11.20;;;;;;;26.97;41.99;100989.38;5030171;27;96957;-62
2023/06/19 06:27:00;;;;;;;24.75;10.80;;;;;;;26.73;42.51;100989.06;5028490;27;99545;-62
2023/06/19 06:29:28;;;;;;;12.48;10.32;;;;;;;26.62;42.84;100987.44;5027715;27;99068;-61
2023/06/19 06:32:04;;;;;;;42.67;13.10;;;;;;;26.53;43.12;100997.31;5031204;27;96862;-62
2023/06/19 06:34:32;;;;;;;17.27;10.77;;;;;;;26.45;43.40;100989.06;5025856;27;98080;-62
2023/06/19 06:36:59;;;;;;;22.08;11.73;;;;;;;26.27;43.70;100996.31;5025020;27;99172;-63
2023/06/19 06:39:26;;;;;;;11.95;10.57;;;;;;;26.53;43.45;101002.72;5023729;27;99161;-63
2023/06/19 06:41:53;;;;;;;24.60;11.90;;;;;;;26.66;43.04;101002.38;5029818;27;96825;-62
2023/06/19 06:44:19;;;;;;;12.20;10.55;;;;;;;26.73;43.05;101008.03;5029167;27;97654;-62
2023/06/19 06:46:56;;;;;;;12.30;11.05;;;;;;;26.66;43.43;101007.78;5039168;27;99179;-63
2023/06/19 06:49:23;;;;;;;15.18;11.32;;;;;;;26.64;43.33;101017.09;5026031;27;97529;-62
2023/06/19 06:51:49;;;;;;;16.83;11.25;;;;;;;26.83;42.63;101004.28;5017143;27;96829;-62
2023/06/19 06:54:16;;;;;;;12.80;11.15;;;;;;;26.72;42.72;101003.63;5030449;27;97749;-62
2023/06/19 06:56:43;;;;;;;15.23;11.80;;;;;;;26.86;42.63;101009.38;5033741;27;98954;-62
2023/06/19 06:59:09;;;;;;;17.50;11.52;;;;;;;26.91;42.60;101007.09;5023108;27;99169;-61
2023/06/19 07:01:36;;;;;;;13.65;10.73;;;;;;;26.85;42.75;101013.09;5028283;27;96685;-62
2023/06/19 07:04:04;;;;;;;17.67;10.93;;;;;;;26.86;43.35;101014.78;5027843;27;97395;-62
2023/06/19 07:06:30;;;;;;;16.77;11.30;;;;;;;27.00;42.70;101015.31;5029801;27;98004;-62
2023/06/19 07:08:57;;;;;;;16.95;10.43;;;;;;;27.18;42.22;101008.88;5027821;27;101413;-64
2023/06/19 07:11:23;;;;;;;13.25;11.45;;;;;;;27.11;41.97;101007.78;5033718;27;96931;-62
2023/06/19 07:13:50;;;;;;;17.92;11.43;;;;;;;27.24;41.62;101013.69;5025204;27;97760;-63
2023/06/19 07:16:17;;;;;;;20.83;11.15;;;;;;;27.02;41.99;101007.88;5028863;27;102848;-64
2023/06/19 07:18:43;;;;;;;16.95;11.60;;;;;;;27.30;41.61;101006.81;5033951;27;98830;-62
2023/06/19 07:21:13;;;;;;;20.35;11.10;;;;;;;27.24;41.74;101002.00;5026480;27;98146;-61
2023/06/19 07:23:40;;;;;;;12.25;9.75;;;;;;;27.61;41.32;101004.53;5034587;27;96974;-63
2023/06/19 07:26:06;;;;;;;13.27;10.32;;;;;;;27.52;41.57;101006.34;5026836;27;98831;-64
2023/06/19 07:28:35;;;;;;;15.32;10.63;;;;;;;27.61;41.54;101004.53;5035289;27;98827;-64
2023/06/19 07:31:02;;;;;;;13.70;10.75;;;;;;;28.06;40.22;101016.06;5034353;27;96762;-63
2023/06/19 07:33:29;;;;;;;17.25;11.75;;;;;;;28.07;40.38;101016.91;5031503;27;97052;-63
2023/06/19 07:35:55;;;;;;;16.75;10.15;;;;;;;28.02;40.44;101022.84;5029838;27;99010;-62
2023/06/19 07:38:23;;;;;;;12.70;10.95;;;;;;;27.75;40.79;101018.41;5028697;27;101219;-61
2023/06/19 07:40:50;;;;;;;14.05;10.35;;;;;;;27.86;40.54;101019.13;5025799;27;96925;-64
2023/06/19 07:43:17;;;;;;;13.10;10.20;;;;;;;28.31;39.67;101017.06;5025853;27;97262;-62
2023/06/19 07:45:43;;;;;;;12.63;10.27;;;;;;;28.50;39.27;101024.97;5031737;27;98109;-62
2023/06/19 07:48:10;;;;;;;13.32;10.07;;;;;;;28.46;39.64;101017.31;5024609;27;99018;-62
2023/06/19 07:50:36;;;;;;;14.27;10.70;;;;;;;28.53;39.31;101021.94;5025905;27;96857;-63
2023/06/19 07:53:03;;;;;;;12.63;10.10;;;;;;;28.42;39.70;101022.19;5024787;27;98863;-62
2023/06/19 07:55:32;;;;;;;15.75;10.00;;;;;;;28.63;38.93;101018.22;5025035;27;99293;-63
2023/06/19 07:57:58;;;;;;;16.55;9.45;;;;;;;28.46;39.23;101028.19;5024703;27;99220;-62
2023/06/19 08:00:25;;;;;;;13.00;9.85;;;;;;;28.61;38.91;101026.56;5028139;27;96907;-63
2023/06/19 08:02:52;;;;;;;14.20;10.40;;;;;;;28.63;38.59;101013.63;5018950;27;97363;-62
2023/06/19 08:05:18;;;;;;;11.32;9.75;;;;;;;28.91;38.35;101016.97;5019890;27;98937;-62
2023/06/19 08:07:45;;;;;;;15.20;10.27;;;;;;;28.83;37.82;101016.94;5027676;27;99862;-62
2023/06/19 08:10:11;;;;;;;15.95;10.63;;;;;;;28.95;37.58;101022.94;5021154;27;97428;-62
2023/06/19 08:12:41;;;;;;;12.02;9.95;;;;;;;28.77;37.76;101021.19;5027607;27;96945;-62
2023/06/19 08:15:09;;;;;;;13.38;10.00;;;;;;;29.03;37.50;101017.50;5021631;27;99035;-62
2023/06/19 08:17:36;;;;;;;11.75;9.02;;;;;;;29.14;37.48;101017.19;5027290;27;99403;-62
2023/06/19 08:20:05;;;;;;;11.40;9.40;;;;;;;28.98;37.52;101023.44;5028076;27;97227;-62
2023/06/19 08:22:31;;;;;;;13.70;10.13;;;;;;;29.21;37.13;101020.97;5024842;27;96903;-62
2023/06/19 08:24:57;;;;;;;10.85;9.32;;;;;;;29.35;37.04;101024.88;5023974;27;100373;-61
2023/06/19 08:27:24;;;;;;;11.10;10.07;;;;;;;29.24;37.62;101023.31;5024883;27;98289;-61
2023/06/19 08:30:05;;;;;;;13.23;9.75;;;;;;;29.24;38.01;101024.19;5024543;27;97168;-63
2023/06/19 08:32:31;;;;;;;14.15;9.18;;;;;;;29.35;37.70;101031.19;5023604;27;97046;-62
2023/06/19 08:34:57;;;;;;;12.80;9.52;;;;;;;29.20;38.20;101032.84;5024485;27;98948;-62
2023/06/19 08:37:51;;;;;;;10.23;9.10;;;;;;;29.01;38.44;101031.28;5025797;27;99329;-63
2023/06/19 08:40:17;;;;;;;12.65;9.48;;;;;;;29.12;38.37;101025.53;5014909;27;97807;-62
2023/06/19 08:42:44;;;;;;;14.85;10.32;;;;;;;29.39;38.37;101021.69;5021408;27;97916;-62
2023/06/19 08:45:12;;;;;;;13.85;9.57;;;;;;;29.39;38.16;101027.13;5018562;27;97766;-62
2023/06/19 08:47:38;;;;;;;12.38;9.40;;;;;;;29.14;37.95;101017.19;5024485;27;98794;-62
2023/06/19 08:50:06;;;;;;;11.93;9.05;;;;;;;29.35;38.10;101012.13;5017497;27;99976;-62
2023/06/19 08:52:32;;;;;;;30.17;10.27;;;;;;;29.26;37.96;101018.56;5029460;27;96792;-62
2023/06/19 08:54:59;;;;;;;10.85;8.75;;;;;;;29.42;37.96;101005.00;5025339;27;100481;-63
2023/06/19 08:57:34;;;;;;;14.18;10.75;;;;;;;29.59;38.31;100995.81;5026367;27;98803;-63
2023/06/19 09:00:01;;;;;;;16.25;10.73;;;;;;;29.84;37.53;101001.22;5018507;27;98363;-63
2023/06/19 09:02:40;;;;;;;16.95;9.82;;;;;;;29.65;36.80;101011.47;5022924;27;96950;-62
2023/06/19 09:05:12;;;;;;;13.77;10.02;;;;;;;29.45;37.16;101011.97;5024819;27;99025;-63
2023/06/19 09:07:38;;;;;;;16.15;9.98;;;;;;;29.97;36.69;101012.47;5020185;27;99070;-63
2023/06/19 09:10:13;;;;;;;11.55;10.10;;;;;;;29.75;36.81;101016.72;5024930;27;97832;-62
2023/06/19 09:12:40;;;;;;;12.57;11.25;;;;;;;30.07;36.18;101018.56;5024847;27;97375;-63
2023/06/19 09:15:12;;;;;;;11.25;10.18;;;;;;;29.98;36.79;101030.50;5025617;27;98842;-61
2023/06/19 09:17:40;;;;;;;12.10;10.07;;;;;;;30.15;36.42;101034.88;5021554;27;98868;-63
2023/06/19 09:20:08;;;;;;;13.15;9.57;;;;;;;30.11;36.12;101033.56;5026110;27;97629;-62
2023/06/19 09:22:35;;;;;;;14.52;10.10;;;;;;;29.99;37.11;101029.50;5030043;27;97208;-62
2023/06/19 09:25:02;;;;;;;13.25;9.93;;;;;;;30.04;37.02;101027.09;5024225;27;98922;-62
2023/06/19 09:27:33;;;;;;;13.27;10.15;;;;;;;30.20;36.76;101031.63;5024429;27;97699;-62
2023/06/19 09:30:00;;;;;;;12.63;9.90;;;;;;;30.26;36.35;101025.50;5024214;27;97234;-61
2023/06/19 09:32:28;;;;;;;9.82;8.82;;;;;;;30.10;36.80;101027.25;5019461;27;97189;-62
2023/06/19 09:34:58;;;;;;;13.93;9.35;;;;;;;30.23;36.59;101025.84;5019089;27;98965;-62
2023/06/19 09:37:26;;;;;;;13.45;10.60;;;;;;;30.09;37.26;101027.41;5019705;27;98831;-62
2023/06/19 09:39:54;;;;;;;13.45;10.13;;;;;;;30.29;36.84;101028.72;5023094;27;96747;-62
2023/06/19 09:42:28;;;;;;;13.48;10.30;;;;;;;30.32;37.26;101027.53;5032361;27;97952;-62
2023/06/19 09:44:59;;;;;;;13.98;10.32;;;;;;;30.41;36.66;101032.75;5027139;27;99755;-62
2023/06/19 09:47:29;;;;;;;16.20;10.27;;;;;;;30.30;36.91;101033.16;5026148;27;98851;-62
2023/06/19 09:49:57;;;;;;;13.88;10.77;;;;;;;30.64;35.99;101038.34;5024684;27;97057;-63
2023/06/19 09:52:24;;;;;;;13.23;10.30;;;;;;;30.49;36.41;101040.94;5024763;27;96868;-63
2023/06/19 09:54:51;;;;;;;16.42;9.80;;;;;;;30.42;36.35;101041.78;5030561;27;98945;-62
2023/06/19 09:57:19;;;;;;;13.73;10.90;;;;;;;30.16;36.84;101033.03;5029209;27;101199;-62
2023/06/19 09:59:49;;;;;;;14.57;10.38;;;;;;;30.39;37.41;101032.09;5022138;27;97364;-62
2023/06/19 10:02:16;;;;;;;11.90;10.13;;;;;;;30.49;36.71;101027.31;5026789;27;97451;-62
2023/06/19 10:04:45;;;;;;;13.13;10.63;;;;;;;30.78;36.64;101020.38;5023877;27;98952;-64
2023/06/19 10:07:21;;;;;;;16.88;11.05;;;;;;;31.15;36.01;101011.47;5024006;27;98891;-62
2023/06/19 10:10:01;;;;;;;13.60;10.55;;;;;;;31.28;35.71;101007.09;5024831;27;97825;-62
2023/06/19 10:12:38;;;;;;;12.73;10.52;;;;;;;31.47;35.10;101004.91;5025771;27;97198;-62
2023/06/19 10:15:13;;;;;;;16.75;11.13;;;;;;;30.88;36.22;100999.16;5025046;27;102129;-62
2023/06/19 10:17:44;;;;;;;16.60;11.57;;;;;;;31.18;35.79;100995.56;5026907;27;100239;-63
2023/06/19 10:20:24;;;;;;;33.50;12.93;;;;;;;31.37;35.50;100993.41;5024638;27;97993;-63
2023/06/19 10:22:59;;;;;;;23.83;11.43;;;;;;;31.39;35.51;100994.88;5023742;27;97240;-64
2023/06/19 10:25:29;;;;;;;15.25;10.65;;;;;;;30.99;35.97;100995.16;5023410;27;97965;-63
2023/06/19 10:27:55;;;;;;;11.32;10.00;;;;;;;31.46;34.97;100984.06;5025788;27;99150;-62
2023/06/19 10:30:22;;;;;;;12.00;10.25;;;;;;;31.41;35.85;100990.09;5027196;27;96897;-62
2023/06/19 10:32:49;;;;;;;16.98;11.02;;;;;;;31.51;35.90;100992.56;5027520;27;96882;-64
2023/06/19 10:35:21;;;;;;;14.70;10.63;;;;;;;31.25;37.81;100980.16;5025575;27;99000;-62
2023/06/19 10:37:47;;;;;;;19.58;11.13;;;;;;;31.10;37.40;100975.69;5029856;27;98774;-62
2023/06/19 10:40:15;;;;;;;17.90;11.55;;;;;;;31.25;37.98;100971.13;5022791;27;99692;-62
2023/06/19 10:42:42;;;;;;;15.63;11.23;;;;;;;31.24;37.60;100975.72;5033162;27;99280;-64
2023/06/19 10:45:11;;;;;;;14.13;10.10;;;;;;;31.09;37.71;100969.38;5021542;27;98922;-63
2023/06/19 10:47:39;;;;;;;14.13;10.93;;;;;;;30.95;37.74;100972.84;5035113;27;97901;-63
2023/06/19 10:50:10;;;;;;;11.65;10.48;;;;;;;30.80;37.71;100967.31;5025162;27;97267;-62
2023/06/19 10:52:36;;;;;;;11.80;10.45;;;;;;;30.73;37.89;100949.13;5022173;27;97163;-63
2023/06/19 10:55:04;;;;;;;14.88;10.30;;;;;;;31.15;37.25;100946.81;5024056;27;99442;-65
2023/06/19 10:57:33;;;;;;;13.25;10.40;;;;;;;31.11;37.27;100939.19;5031832;27;98851;-62
2023/06/19 11:00:00;;;;;;;11.57;10.30;;;;;;;31.16;37.56;100937.59;5019820;27;97872;-62
2023/06/19 11:02:26;;;;;;;13.85;10.80;;;;;;;31.05;37.56;100929.81;5028074;27;96867;-62
2023/06/19 11:04:54;;;;;;;11.07;9.98;;;;;;;30.97;37.04;100924.41;5020896;27;99567;-63
2023/06/19 11:07:20;;;;;;;14.43;10.32;;;;;;;31.44;36.58;100928.81;5026018;27;99224;-62
2023/06/19 11:09:46;;;;;;;16.50;9.77;;;;;;;31.28;36.34;100924.34;5016801;27;96935;-63
2023/06/19 11:12:19;;;;;;;12.90;10.25;;;;;;;31.33;35.77;100929.25;5032131;27;98114;-63
2023/06/19 11:14:47;;;;;;;13.13;9.95;;;;;;;30.98;35.47;100936.19;5019657;27;100322;-63
2023/06/19 11:17:13;;;;;;;10.68;9.55;;;;;;;31.23;35.58;100945.91;5032535;27;98820;-62